2018 Reeds Lake Trailblazer
Skip Navigation Links
Results
4 Jul 2018
Page 1 of 1 (26 items)
Pos
Race No
Fav
Share
Print
Video
Name
Time
Category
Cat Pos
Gender
Gen Pos
Pace
139NOLAN WILLIAMSON 00:12:2710 under1Male114.9 m/hr
242IVAN ZYLSTRA00:13:0110 under2Male214.3 m/hr
324ZACK LEWIS 00:13:4710 under3Male313.5 m/hr
423SAM LEWIS 00:13:5510 under4Male413.4 m/hr
519ADISON KILLION00:14:2610 under1Female112.9 m/hr
625COOPER MATTHYSSE00:16:0510 under5Male511.6 m/hr
74MAX CAHILL00:16:1110 under6Male611.5 m/hr
845ELIZABETH DOZEMA00:16:1610 under2Female211.4 m/hr
946ED DOZEMA00:16:1910 under7Male711.4 m/hr
1043TEDDY REESE00:16:4410 under8Male811.1 m/hr
11100TAELYN WALKER00:16:5710 under3Female311.0 m/hr
1298MADISON JORDAN00:17:0510 under4Female410.9 m/hr
139CORA DUDLEY00:17:2010 under5Female510.7 m/hr
1428TENLEY MERKLE00:17:3610 under6Female610.6 m/hr
1510HAYES DUDLEY00:18:2310 under9Male910.1 m/hr
1697PEYTON PRINS00:23:3410 under7Female7 7.9 m/hr
1799KAELIA WALKER00:23:4710 under8Female8 7.8 m/hr
1834EVIE TERHORST00:23:4910 under9Female9 7.8 m/hr
1937JAMES WALLIN00:24:5610 under10Male10 7.5 m/hr
2038WILL WALLIN00:25:1810 under11Male11 7.3 m/hr
2120VALERIE KILLION00:27:3210 under10Female10 6.8 m/hr
2247CHILD 1 BORDOLI00:33:50NoAge1Female11 5.5 m/hr
2348CHILD 2 BORDOLI00:33:50NoAge1Male12 5.5 m/hr
2452ALICE CHRISTY00:34:2310 under11Female12 5.4 m/hr
2521ANGELINA KRANIAS00:49:1610 under12Female13 3.8 m/hr
44JOHN REESEStarted10 underMale 
Page 1 of 1 (26 items)
fb